Stations météo

réclame
Mon MeteoGroup
Schmücke, Allemagne (10552): Température de l'air & dewpoint: 28.06.2020 03:00:00 - 04.07.2020 03:00:00 (CEST)Schmücke, Allemagne (10552): Température de l'air 5cm & Température de l'air -5cm: 28.06.2020 03:00:00 - 04.07.2020 03:00:00 (CEST)Schmücke, Allemagne (10552): Température de l'air -20cm & Température de l'air -100cm: 28.06.2020 03:00:00 - 04.07.2020 03:00:00 (CEST)Schmücke, Allemagne (10552): Vitesse du vent & gusts: 28.06.2020 03:00:00 - 04.07.2020 03:00:00 (CEST)Schmücke, Allemagne (10552): Direction du vent: 28.06.2020 03:00:00 - 04.07.2020 03:00:00 (CEST)Schmücke, Allemagne (10552): visibility: 28.06.2020 03:00:00 - 04.07.2020 03:00:00 (CEST)Schmücke, Allemagne (10552): Ensoleillement: 28.06.2020 03:00:00 - 04.07.2020 03:00:00 (CEST)Schmücke, Allemagne (10552): Quantités de précipitations: 28.06.2020 03:00:00 - 04.07.2020 03:00:00 (CEST)
Date & Time tt [°C] td [°C] tt 5cm [°C] tt -5cm [°C] tt -20cm [°C] tt -100cm [°C] ff [km/h] ff [knt] fx [km/h] fx [knt] dd vv [km] sd [min] rr [mm]
04.07.2020 03:00:00 10,8 7,8 9,3 13,3 16,7 13,4 16 9 29 16 WSW 65 0 0,0
04.07.2020 02:00:00 11,9 7,7 10,9 13,8 17,1 13,4 16 9 31 17 SW 61 0 0,0
04.07.2020 01:00:00 11,5 7,7 10,4 14,3 17,5 13,4 12 7 23 12 SW 75 0 0,0
04.07.2020 00:00:00 11,0 7,7 9,2 14,9 17,9 13,4 8 4 19 10 SW 64 0 0,0
03.07.2020 23:00:00 11,3 7,9 8,9 15,9 18,3 13,4 7 4 14 8 SW 58 0 0,0
03.07.2020 22:00:00 12,2 8,0 10,0 17,2 18,5 13,4 8 4 20 11 WSW 64 6 0,0
03.07.2020 21:00:00 13,9 7,9 12,5 19,0 18,6 13,4 11 6 27 15 WSW 58 30 0,0
03.07.2020 20:00:00 15,0 7,5 15,5 20,7 18,6 13,4 14 8 25 14 WSW 71 42 0,0
03.07.2020 19:00:00 15,4 7,5 17,0 21,6 18,4 13,4 12 7 34 18 WSW 68 20 0,0
03.07.2020 18:00:00 15,7 8,1 17,6 22,7 18,1 13,4 14 8 30 16 WSW 55 31 0,0
03.07.2020 17:00:00 16,2 8,9 20,9 21,9 17,8 13,4 14 7 36 20 WSW 46 18 0,0
03.07.2020 16:00:00 15,0 7,5 17,1 22,3 17,5 13,4 16 9 29 15 WSW 60 16 0,0
03.07.2020 15:00:00 14,6 8,6 17,3 21,6 17,1 13,4 14 8 29 16 WSW 71 7 0,0
03.07.2020 14:00:00 14,4 7,3 15,7 21,8 16,6 13,4 14 8 33 18 SW 61 12 0,0
03.07.2020 13:00:00 14,9 8,6 19,7 21,8 16,1 13,4 20 11 45 25 SW 50 28 0,0
03.07.2020 12:00:00 13,1 7,1 14,4 20,0 15,6 13,4 22 12 39 21 SW 49 31 0,0
03.07.2020 11:00:00 12,8 7,8 17,0 17,7 15,3 13,4 19 10 32 17 SW 60 32 0,0
03.07.2020 10:00:00 11,9 8,5 14,6 15,8 15,1 13,4 13 7 28 15 WSW 41 41 0,0
03.07.2020 09:00:00 11,4 9,0 13,7 14,2 15,1 13,4 14 8 30 16 WSW 55 28 0,0
03.07.2020 08:00:00 10,2 8,8 11,9 13,1 15,3 13,4 14 8 29 16 WSW 28 42 0,0
03.07.2020 07:00:00 9,4 8,4 8,8 12,1 15,6 13,4 17 9 29 15 WSW 27 37 0,0
03.07.2020 06:00:00 9,4 8,3 8,8 12,6 15,9 13,4 15 8 30 16 W 21 0 0,0
03.07.2020 05:00:00 9,4 8,5 8,8 13,1 16,1 13,4 18 10 29 16 W 10 0 0,0
03.07.2020 04:00:00 9,6 9,0 9,6 13,5 16,4 13,4 17 9 31 17 W 10 0 0,0
03.07.2020 03:00:00 9,8 9,3 10,0 13,8 16,7 13,4 16 9 26 14 W 2,4 0 0,0
03.07.2020 02:00:00 10,6 9,0 9,8 14,3 17,0 13,4 15 8 30 16 WSW 64 0 0,0
03.07.2020 01:00:00 11,3 9,7 10,8 14,9 17,3 13,4 10 5 35 19 NW 43 0 0,0
03.07.2020 00:00:00 12,5 9,8 12,3 15,3 17,7 13,4 18 10 31 17 W 56 0 0,0
02.07.2020 23:00:00 12,6 10,0 11,5 15,8 18,0 13,4 16 9 25 13 W 53 0 0,0
02.07.2020 22:00:00 12,9 9,9 11,1 17,0 18,3 13,4 10 6 21 12 W 57 0 0,0
02.07.2020 21:00:00 13,7 9,8 12,8 18,2 18,5 13,4 10 5 26 14 W 69 5 0,0
02.07.2020 20:00:00 14,4 9,9 14,5 19,2 18,6 13,4 10 6 32 17 W 62 0 0,0
02.07.2020 19:00:00 15,0 10,6 15,5 20,3 18,5 13,4 16 9 43 23 WNW 65 2 0,0
02.07.2020 18:00:00 16,9 11,4 17,4 22,0 18,3 13,4 29 15 45 24 SSW 53 11 0,0
02.07.2020 17:00:00 18,1 10,9 20,0 23,2 17,9 13,4 24 13 47 26 SSW 75 25 0,0
02.07.2020 16:00:00 18,3 9,2 19,6 22,9 17,5 13,4 29 15 46 25 SW 73 24 0,0
02.07.2020 15:00:00 17,3 10,4 18,6 22,1 17,1 13,4 24 13 44 24 SSW 68 18 0,0
02.07.2020 14:00:00 17,0 11,4 20,5 20,1 16,8 13,4 26 14 44 24 SSW 56 6 0,0
02.07.2020 13:00:00 16,2 11,0 18,3 21,0 16,4 13,4 16 9 33 18 SSW 62 21 0,0
02.07.2020 12:00:00 15,4 10,5 17,1 20,1 15,9 13,4 20 11 37 20 SSW 45 9 0,0
02.07.2020 11:00:00 15,7 10,3 17,9 19,9 15,5 13,4 16 8 35 19 SW 64 53 0,0
02.07.2020 10:00:00 14,5 10,8 17,0 17,0 15,3 13,4 20 11 37 20 SW 52 31 0,0
02.07.2020 09:00:00 13,2 11,5 14,1 15,4 15,4 13,4 14 7 28 15 SW 43 12 0,0
02.07.2020 08:00:00 12,2 11,6 12,8 14,5 15,5 13,4 14 7 24 13 SW 16 0 0,0
02.07.2020 07:00:00 11,8 11,1 11,5 13,9 15,6 13,4 11 6 21 11 SW 32 25 0,0
02.07.2020 06:00:00 11,8 11,0 11,2 14,3 15,8 13,4 8 5 23 12 SW 18 0 0,2
02.07.2020 05:00:00 12,8 10,8 12,6 14,6 16,0 13,4 9 5 18 10 W 60 0 0,0
02.07.2020 04:00:00 13,5 11,6 13,1 15,0 16,1 13,4 9 5 25 14 W 67 0 0,0
02.07.2020 03:00:00 14,4 11,7 14,1 15,2 16,3 13,4 10 5 20 11 W 60 0 0,0
02.07.2020 02:00:00 15,0 12,6 14,3 15,4 16,5 13,4 14 7 24 13 WSW 56 0 0,0
02.07.2020 01:00:00 15,5 12,7 15,0 16,0 16,6 13,5 18 10 26 14 WSW 57 0 0,0
02.07.2020 00:00:00 15,6 12,5 15,0 16,3 16,8 13,5 13 7 22 12 W 65 0 0,0
01.07.2020 23:00:00 16,6 13,2 15,6 17,0 16,9 13,5 12 6 22 12 WSW 60 0 0,0
01.07.2020 22:00:00 17,5 12,8 16,7 17,5 17,0 13,5 16 9 35 19 WSW 57 0 0,0
01.07.2020 21:00:00 18,6 11,8 17,6 18,6 17,0 13,5 22 12 43 23 WSW 64 23 0,0
01.07.2020 20:00:00 19,6 12,4 18,7 20,3 16,7 13,5 26 14 55 30 SW 61 38 0,0
01.07.2020 19:00:00 20,6 12,8 21,4 21,0 16,4 13,5 31 17 57 31 SW 71 40 0,0
01.07.2020 18:00:00 20,2 12,9 20,4 20,6 16,1 13,5 28 15 54 29 SW 55 22 0,0
01.07.2020 17:00:00 20,2 13,5 21,4 20,3 15,7 13,5 26 14 59 32 SW 67 16 0,0
01.07.2020 16:00:00 19,7 13,3 20,8 19,8 15,3 13,5 33 18 55 30 SSW 62 10 0,0
01.07.2020 15:00:00 18,8 13,4 20,1 19,8 14,8 13,5 27 14 54 29 SW 58 22 0,0
01.07.2020 14:00:00 18,3 13,1 21,0 18,3 14,4 13,5 32 17 53 28 SSW 60 11 0,0
01.07.2020 13:00:00 16,7 12,9 18,1 17,5 14,1 13,5 32 17 59 32 SSW 75 10 0,0
01.07.2020 12:00:00 15,1 12,3 16,3 15,5 13,9 13,5 - - - - - 64 2 0,0
01.07.2020 11:00:00 14,0 11,8 14,6 14,2 13,7 13,5 - - - - - 53 0 0,0
01.07.2020 10:00:00 13,1 11,3 13,7 14,0 13,6 13,5 34 18 51 28 SW 49 4 0,0
01.07.2020 09:00:00 12,0 10,7 13,2 12,8 13,6 13,6 28 15 41 22 SW 42 0 0,0
01.07.2020 08:00:00 11,2 10,0 11,5 12,7 13,6 13,6 21 11 35 19 SW 45 11 0,0
01.07.2020 07:00:00 10,8 9,7 11,3 12,0 13,7 13,6 22 12 37 20 SW 40 33 0,0
01.07.2020 06:00:00 10,8 9,6 10,9 11,5 13,8 13,6 21 11 34 18 SW 48 0 0,0
01.07.2020 05:00:00 10,6 9,4 10,3 11,2 14,0 13,6 25 14 36 19 SW 45 0 0,0
01.07.2020 04:00:00 10,3 9,1 9,3 11,2 14,2 13,6 24 13 34 18 SW 39 0 0,0
01.07.2020 03:00:00 10,6 9,0 10,1 11,5 14,4 13,6 23 12 39 21 SW 44 0 0,0
01.07.2020 02:00:00 11,0 9,1 10,4 11,7 14,6 13,6 24 13 39 21 SW 47 0 0,0
01.07.2020 01:00:00 11,3 9,1 10,3 12,0 14,9 13,6 25 14 41 22 SW 43 0 0,0
01.07.2020 00:00:00 11,6 8,9 10,6 12,3 15,1 13,6 27 15 42 23 SW 50 0 0,0
30.06.2020 23:00:00 11,7 8,9 10,5 12,9 15,4 13,6 25 14 43 23 SW 57 0 0,0
30.06.2020 22:00:00 12,3 9,2 11,2 13,7 15,6 13,6 25 14 41 22 SW 54 0 0,0
30.06.2020 21:00:00 12,9 8,8 12,5 14,4 15,7 13,6 27 15 49 26 SW 49 8 0,0
30.06.2020 20:00:00 13,0 8,5 12,5 15,3 15,8 13,6 29 16 52 28 SW 74 6 0,0
30.06.2020 19:00:00 12,9 8,5 13,0 16,3 15,8 13,6 32 18 56 31 SW 56 6 0,0
30.06.2020 18:00:00 13,3 8,2 15,3 17,1 15,7 13,6 32 18 57 31 SW 55 18 0,0
30.06.2020 17:00:00 13,4 8,0 15,0 17,3 15,6 13,6 37 20 59 32 SSW 51 20 0,0
30.06.2020 16:00:00 12,5 7,6 13,4 16,9 15,4 13,6 32 17 62 33 SW 50 3 0,0
30.06.2020 15:00:00 13,0 6,9 14,7 17,5 15,1 13,6 36 19 65 35 SW 48 9 0,0
30.06.2020 14:00:00 13,4 6,7 14,8 17,7 14,8 13,6 29 16 61 33 SW 60 14 0,0
30.06.2020 13:00:00 13,3 5,7 14,9 18,6 14,2 13,6 42 23 67 36 SSW 64 37 0,0
30.06.2020 12:00:00 13,4 5,7 16,7 17,2 13,8 13,6 36 19 68 37 SW 45 45 0,0
30.06.2020 11:00:00 12,2 5,5 14,5 15,0 13,5 13,6 36 20 61 33 SW 69 44 0,0
30.06.2020 10:00:00 11,5 5,6 13,4 12,2 13,4 13,6 40 21 66 36 SW 42 32 0,0
30.06.2020 09:00:00 8,8 5,4 9,2 11,1 13,5 13,6 22 12 37 20 SW 55 28 0,0
30.06.2020 08:00:00 8,7 5,0 9,1 10,6 13,7 13,6 25 14 39 21 SW 50 23 0,0
30.06.2020 07:00:00 8,4 4,5 8,5 9,7 13,9 13,7 26 14 37 20 SW 48 17 0,0
30.06.2020 06:00:00 8,4 3,9 8,0 9,6 14,3 13,7 23 12 39 21 WSW 56 1 0,0
30.06.2020 05:00:00 7,8 4,1 6,7 9,6 14,7 13,7 26 14 41 22 WSW 50 0 0,0
30.06.2020 04:00:00 8,0 5,2 6,8 10,3 15,0 13,7 24 13 37 20 WSW 54 0 0,0
30.06.2020 03:00:00 8,5 6,1 7,0 11,0 15,4 13,7 19 10 30 16 WSW 55 0 0,0
30.06.2020 02:00:00 9,5 7,0 7,9 11,9 15,7 13,7 18 10 32 17 WSW 58 0 0,0
30.06.2020 01:00:00 10,5 8,5 9,4 12,5 16,1 13,7 18 10 33 18 WSW 53 0 0,0
30.06.2020 00:00:00 11,2 9,9 10,0 13,3 16,4 13,7 16 9 34 18 WSW 46 0 0,0
29.06.2020 23:00:00 12,2 9,7 11,5 14,0 16,7 13,7 20 11 32 17 SW 64 0 0,0
29.06.2020 22:00:00 12,4 8,6 11,5 14,8 17,0 13,7 16 8 27 15 SW 59 4 0,0
29.06.2020 21:00:00 13,3 8,5 12,4 16,1 17,1 13,7 16 9 34 19 SW 75 44 0,0
29.06.2020 20:00:00 14,6 7,8 15,2 17,8 17,1 13,7 21 11 41 22 SSW 65 52 0,0
29.06.2020 19:00:00 14,7 7,6 15,0 18,8 17,1 13,7 18 10 43 23 SW 53 38 0,0
29.06.2020 18:00:00 13,9 7,9 15,0 18,9 16,9 13,6 18 10 44 24 SW 74 22 0,0
29.06.2020 17:00:00 14,2 9,2 14,3 18,7 16,8 13,6 18 10 37 20 SW 58 11 0,0
29.06.2020 16:00:00 12,4 9,2 12,7 19,3 16,4 13,6 16 9 47 25 SW 68 16 0,0
29.06.2020 15:00:00 12,7 9,8 14,9 20,8 16,0 13,6 20 11 41 22 SW 51 46 0,0
29.06.2020 14:00:00 11,1 9,8 13,1 18,1 15,7 13,6 19 11 54 29 SW 22 20 3,0
29.06.2020 13:00:00 13,6 9,5 16,0 18,3 15,4 13,6 18 10 31 17 SW 62 21 0,0
29.06.2020 12:00:00 12,3 10,8 16,2 15,9 15,3 13,6 16 9 31 17 SW 47 12 0,0
29.06.2020 11:00:00 10,0 9,5 10,8 14,4 15,2 13,6 17 9 32 17 SW 7 0 0,0
29.06.2020 10:00:00 10,2 9,9 11,4 14,5 15,2 13,6 13 7 27 15 SW 0,2 0 0,0
29.06.2020 09:00:00 10,1 9,8 11,1 13,9 15,2 13,6 10 6 22 12 SW 0,5 0 0,0
29.06.2020 08:00:00 9,6 9,4 10,2 13,3 15,3 13,6 16 9 23 12 SW 0,1 0 0,0
29.06.2020 07:00:00 9,5 9,3 10,0 12,8 15,5 13,6 11 6 31 17 SW 0,1 0 0,0
29.06.2020 06:00:00 9,3 9,1 9,6 12,7 15,7 13,6 18 10 27 15 SW 0,1 0 0,0
29.06.2020 05:00:00 9,4 9,1 9,6 12,9 15,9 13,6 17 9 30 16 SW 0,1 0 0,0
29.06.2020 04:00:00 9,6 9,3 9,8 13,0 16,2 13,6 18 10 30 16 SW 0,1 0 0,0
29.06.2020 03:00:00 9,8 9,4 9,9 13,2 16,4 13,6 18 10 29 16 SW 0,5 0 0,0
29.06.2020 02:00:00 9,8 9,2 9,5 13,4 16,7 13,5 17 9 24 13 SW 26 0 0,0
29.06.2020 01:00:00 10,2 9,2 9,7 13,9 17,0 13,5 13 7 18 10 SW 39 0 0,1
29.06.2020 00:00:00 10,7 9,2 10,2 14,2 17,3 13,5 7 4 19 10 SW 28 0 0,0
28.06.2020 23:00:00 11,0 8,9 10,2 14,6 17,6 13,5 12 7 24 13 WSW 52 0 0,0
28.06.2020 22:00:00 11,8 8,9 11,4 15,5 17,9 13,5 14 8 39 21 WSW 67 0 0,0
28.06.2020 21:00:00 13,0 9,5 12,8 16,4 18,1 13,5 14 8 31 17 WSW 55 0 0,0
28.06.2020 20:00:00 14,0 10,0 14,1 17,1 18,2 13,5 19 11 35 19 SW 65 0 0,0
28.06.2020 19:00:00 14,7 10,0 14,8 18,1 18,3 13,5 23 13 36 20 SW 57 0 0,0
28.06.2020 18:00:00 15,8 10,8 16,4 19,0 18,3 13,5 16 9 47 26 WSW 50 0 0,0
28.06.2020 17:00:00 16,0 10,6 16,7 19,8 18,2 13,4 26 14 42 23 SW 54 1 0,0
28.06.2020 16:00:00 16,6 12,0 17,1 20,2 18,0 13,4 20 11 45 24 SW 44 7 0,0
28.06.2020 15:00:00 16,5 14,1 16,9 20,6 17,8 13,4 25 13 44 24 SW 44 22 2,4
28.06.2020 14:00:00 16,3 13,8 16,9 19,7 17,6 13,4 28 15 49 26 SW 38 14 0,0
28.06.2020 13:00:00 16,6 14,0 17,7 18,7 17,5 13,4 29 16 53 28 SSW 40 7 0,0
28.06.2020 12:00:00 14,9 14,2 15,4 17,0 17,5 13,4 29 15 49 26 SSW 9 0 0,0
28.06.2020 11:00:00 14,8 14,6 15,0 16,6 17,6 13,4 32 17 51 28 SSW 0,1 0 0,4
28.06.2020 10:00:00 15,0 14,7 15,1 16,8 17,7 13,4 24 13 42 23 SSW 0,2 0 0,0
28.06.2020 09:00:00 14,9 14,4 15,0 17,0 17,7 13,3 24 13 43 23 SSW 4,2 1 0,1
28.06.2020 08:00:00 16,3 14,6 17,3 17,2 17,8 13,3 26 14 40 22 SW 26 45 0,0
28.06.2020 07:00:00 15,4 14,0 15,0 16,2 18,0 13,3 19 10 30 16 SW 30 10 0,0
28.06.2020 06:00:00 15,0 13,4 14,5 15,6 18,2 13,3 14 7 21 11 SW 40 0 0,0
28.06.2020 05:00:00 14,7 13,4 13,0 16,0 18,5 13,3 10 5 21 11 SW 30 0 0,0
28.06.2020 04:00:00 15,2 13,7 13,8 16,4 18,8 13,3 11 6 20 11 SW 31 0 0,0
28.06.2020 03:00:00 16,0 14,2 15,2 17,0 19,1 13,3 13 7 22 12 SW 39 0 0,0

tt = Température de l'air
td = dewpoint
tt 5cm = Température de l'air 5cm
tt -5cm = Température de l'air -5cm
tt -20cm = Température de l'air -20cm
tt -100cm = Température de l'air -100cm
ff = Vitesse du vent
fx = gusts
dd = Direction du vent
vv = visibility
sd = Ensoleillement
rr = Quantités de précipitations

stations d'obs. à proximité